Leesburg, GA

5:31 AM EDT on September 16, 2014 (GMT -0400)
Southwest Georgia Regional | Change Station
CLOSE
Current Station
Airport
Location: Albany,
Elevation: 194 ft
Nearby Weather Stations

Elev 194 ft 31.54 °N, 84.19 °W | Updated 38 minutes ago

Overcast
Overcast
76 °F
Feels Like 76 °F
N
0
Wind Variable Wind from North

Today
High -- | Low -- °F
--% Chance of Precip.
Yesterday
High -- | Low -- °F
Precip. -- in
7:21 AM 7:41 PM
Waning Gibbous, 47% visible
Pressure 30.07 in
Visibility 10.0 miles
Clouds Overcast 500 ft
Dew Point 74 °F
Humidity 94%
Rainfall 0.00 in
Snow Depth Not available.
UV 0 out of 12
Pollen 7.40 out of 12
Air Quality Not available.
Flu Activity Not available.
METAR KABY 160853Z 00000KT 10SM OVC005 24/23 A3008 RMK AO2 SLP182 T02440233 55006

More Conditions Fewer Conditions

Pressure 30.07 in
Visibility 10.0 miles
Clouds Overcast 500 ft
Dew Point 74 °F
Humidity 94%
Rainfall 0.00 in
Snow Depth Not available.
UV 0 out of 12
Pollen 7.40 out of 12
Air Quality Not available.
Flu Activity Not available.
METAR KABY 160853Z 00000KT 10SM OVC005 24/23 A3008 RMK AO2 SLP182 T02440233 55006

More Conditions Fewer Conditions

10-Day Weather Forecast

Almanac

Astronomy

Sep. 16, 2014 Rise Set
Actual Time 7:21 AM EDT 7:41 PM EDT
Civil Twilight 6:56 AM EDT 8:05 PM EDT
Nautical Twilight 6:28 AM EDT 8:33 PM EDT
Astronomical Twilight 5:59 AM EDT 9:02 PM EDT
Moon 12:45 AM EDT 2:48 PM EDT
Length of Visible Light 13h 08m
Length of Day
12h 19m
Tomorrow will be 1m 55s shorter.
Waning Gibbous, 47% of the Moon is Illuminated
Today
Waning Gibbous
Sep 24
New
Oct 1
First Quarter
Oct 8
Full
Oct 15
Last Quarter

Today's Extremes

State Highs State Lows

Community

WunderPhotos

Upload Photos

1,753,714 photos uploaded!

WunderBlogs® & News

Nearby

Snow Depth

Station Depth Elevation
No new snow has been reported.

Earthquake Activity

City Distance Mag. Time & Date
No recent earthquake activity has been reported nearby.
Minimum magnitude displayed is 2.5.

Coastal Water Temperatures

Place Temperature
No Stations Reporting

Nearby Weather Stations